»·PEaware :: N2842Y KTOA-KVNY

N2842Y :: KTOA-KVNY

FLIGHT INFORMATION

Flight Status: Arrived
Operator: Privately registered:
United States
More flights under this callsign
Pilot: Cody B. (17747)
Aircraft: CESSNA 172 SKYHAWK
(C172)
More flights by this aircraft type
Origin: KTOA Zamperini
United States
Destination: KVNY Van Nuys
United States
More flights between these airports :: More routes between these airports
Route: +
File this flight plan on PilotEdge
Remarks:
Altitude:
(Current/Filed)
2,500ft
Speed:
(Current/Filed)
115kts
Departed: 16-Jun-18 09:13 AM
Arrived: 16-Jun-18 10:35 AM
Distance/Time
Traveled:
25nm/1:22
Distance/Time
To Go:
Arrived

Flight Plot

Page will automatically refresh every two minutes.


Map Options




Map Legend


Flown Route
Filed Route
Departure Airport
Arrival Airport
Navaid (VOR, NDB)
Fix

Horizontal Profiles

Position Reports

Time Latitude Longitude Heading Altitude Ground
Speed
16-Jun-18 09:03 33.803347 -118.344051 39 102ft 0kts
16-Jun-18 09:04 33.803347 -118.344051 39 102ft 0kts
16-Jun-18 09:05 33.803413 -118.343792 131 102ft 3kts
16-Jun-18 09:06 33.802608 -118.342669 128 104ft 9kts
16-Jun-18 09:07 33.800936 -118.339690 38 104ft 8kts
16-Jun-18 09:08 33.799894 -118.337329 128 104ft 11kts
16-Jun-18 09:09 33.798120 -118.334651 129 106ft 7kts
16-Jun-18 09:10 33.799172 -118.333230 39 100ft 0kts
16-Jun-18 09:11 33.799172 -118.333230 39 100ft 0kts
16-Jun-18 09:12 33.799923 -118.333399 310 99ft 10kts
16-Jun-18 09:13 33.812260 -118.350120 326 548ft 87kts
16-Jun-18 09:14 33.833443 -118.361414 336 1335ft 86kts
16-Jun-18 09:15 33.857827 -118.372180 354 1558ft 107kts
16-Jun-18 09:16 33.885351 -118.381712 340 1424ft 101kts
16-Jun-18 09:17 33.900795 -118.396911 215 1367ft 68kts
16-Jun-18 09:18 33.896485 -118.386600 40 1277ft 82kts
16-Jun-18 09:19 33.893100 -118.368651 191 1586ft 94kts
16-Jun-18 09:20 33.894445 -118.362836 332 1622ft 98kts
16-Jun-18 09:21 33.918618 -118.378207 287 1664ft 81kts
16-Jun-18 09:22 33.917832 -118.398900 352 2089ft 105kts
16-Jun-18 09:23 33.944602 -118.409287 335 2059ft 92kts
16-Jun-18 09:24 33.966118 -118.423571 323 1852ft 87kts
16-Jun-18 09:25 33.986413 -118.442810 330 1501ft 97kts
16-Jun-18 09:26 34.000585 -118.452071 335 1516ft 79kts
16-Jun-18 09:27 34.000585 -118.452071 335 1516ft 79kts
16-Jun-18 09:33 33.803347 -118.344051 39 102ft 0kts
16-Jun-18 09:34 33.803347 -118.344051 39 102ft 0kts
16-Jun-18 09:35 33.803347 -118.344051 39 102ft 0kts
16-Jun-18 09:36 33.803347 -118.344051 39 102ft 0kts
16-Jun-18 09:37 33.803347 -118.344051 39 102ft 0kts
16-Jun-18 09:38 33.803347 -118.344051 39 102ft 0kts
16-Jun-18 09:39 33.803347 -118.344051 39 102ft 0kts
16-Jun-18 09:40 33.802636 -118.342628 90 104ft 6kts
16-Jun-18 09:41 33.801941 -118.340397 128 102ft 15kts
16-Jun-18 09:42 33.799332 -118.336448 129 104ft 15kts
16-Jun-18 09:43 33.798781 -118.333596 34 102ft 9kts
16-Jun-18 09:44 33.799168 -118.333229 34 100ft 0kts
16-Jun-18 09:45 33.799168 -118.333229 34 100ft 0kts
16-Jun-18 09:46 33.800227 -118.333873 308 99ft 27kts
16-Jun-18 09:47 33.815723 -118.350248 340 649ft 85kts
16-Jun-18 09:48 33.838804 -118.352901 10 1417ft 81kts
16-Jun-18 09:49 33.866757 -118.347163 7 1981ft 109kts
16-Jun-18 09:50 33.891359 -118.362951 269 2121ft 96kts
16-Jun-18 09:51 33.873824 -118.377256 175 1834ft 97kts
16-Jun-18 09:56 33.803347 -118.344052 39 102ft 0kts
16-Jun-18 09:57 33.803347 -118.344052 39 102ft 0kts
16-Jun-18 09:58 33.803347 -118.344052 39 102ft 0kts
16-Jun-18 09:59 33.803359 -118.344039 41 102ft 0kts
16-Jun-18 10:00 33.803314 -118.343706 126 102ft 2kts
16-Jun-18 10:01 33.802899 -118.342308 39 102ft 9kts
16-Jun-18 10:02 33.801940 -118.340425 129 102ft 7kts
16-Jun-18 10:03 33.800339 -118.337977 128 103ft 11kts
16-Jun-18 10:04 33.798621 -118.335388 127 105ft 9kts
16-Jun-18 10:05 33.799053 -118.333329 38 101ft 9kts
16-Jun-18 10:06 33.799162 -118.333234 36 100ft 0kts
16-Jun-18 10:07 33.801546 -118.335805 309 98ft 67kts
16-Jun-18 10:08 33.818458 -118.349795 1 835ft 76kts
16-Jun-18 10:09 33.841764 -118.347156 9 1556ft 103kts
16-Jun-18 10:10 33.870527 -118.346929 353 2321ft 101kts
16-Jun-18 10:11 33.900010 -118.351486 355 2682ft 122kts
16-Jun-18 10:12 33.901245 -118.377357 185 2403ft 87kts
16-Jun-18 10:13 33.901445 -118.360363 343 2503ft 106kts
16-Jun-18 10:14 33.924435 -118.383247 310 2481ft 104kts
16-Jun-18 10:15 33.947822 -118.402793 317 2535ft 104kts
16-Jun-18 10:16 33.969978 -118.426077 312 2495ft 105kts
16-Jun-18 10:17 33.993590 -118.445587 324 2496ft 103kts
16-Jun-18 10:18 34.020148 -118.458375 349 2457ft 107kts
16-Jun-18 10:19 34.049692 -118.462862 334 2347ft 111kts
16-Jun-18 10:20 34.066543 -118.487092 333 2449ft 100kts
16-Jun-18 10:21 34.070117 -118.501850 155 2515ft 92kts
16-Jun-18 10:22 34.081855 -118.479891 356 2349ft 102kts
16-Jun-18 10:23 34.110508 -118.482958 351 2255ft 108kts
16-Jun-18 10:24 34.140246 -118.486131 347 2202ft 110kts
16-Jun-18 10:25 34.169219 -118.490463 352 2173ft 102kts
16-Jun-18 10:26 34.198070 -118.495562 347 2144ft 113kts
16-Jun-18 10:27 34.224523 -118.503433 341 2192ft 68kts
16-Jun-18 10:28 34.225804 -118.491873 173 1574ft 61kts
16-Jun-18 10:29 34.211236 -118.490168 176 1320ft 88kts
16-Jun-18 10:30 34.186758 -118.488497 213 1611ft 83kts
16-Jun-18 10:31 34.207357 -118.501937 354 1559ft 105kts
16-Jun-18 10:32 34.232885 -118.504822 352 1623ft 90kts
16-Jun-18 10:33 34.238506 -118.493326 160 1464ft 65kts
16-Jun-18 10:34 34.220909 -118.491381 175 945ft 59kts
16-Jun-18 10:35 34.209116 -118.490528 195 806ft 10kts
16-Jun-18 10:36 34.206594 -118.491425 253 806ft 6kts
16-Jun-18 10:37 34.206362 -118.492670 78 806ft 0kts
16-Jun-18 10:38 34.206362 -118.492670 78 806ft 0kts
16-Jun-18 10:39 34.206362 -118.492670 78 806ft 0kts
16-Jun-18 10:40 34.206362 -118.492670 78 806ft 0kts
16-Jun-18 10:41 34.206362 -118.492670 78 806ft 0kts
16-Jun-18 10:42 34.206362 -118.492670 78 806ft 0kts
16-Jun-18 10:43 34.206362 -118.492670 78 806ft 0kts
16-Jun-18 10:44 34.206362 -118.492670 78 806ft 0kts
16-Jun-18 10:45 34.206362 -118.492670 78 806ft 0kts
16-Jun-18 10:46 34.206362 -118.492670 78 806ft 0kts
16-Jun-18 10:47 34.206362 -118.492670 78 806ft 0kts
16-Jun-18 10:48 34.206362 -118.492670 78 806ft 0kts
16-Jun-18 10:49 34.206362 -118.492670 78 806ft 0kts

Navigation Log

Ident Type
Flight plan parsing failed, navigation log unavailable